createdAt,value
2019-03-05T00:00:18.017Z,99.99
2019-03-05T00:01:19.121Z,99.99
2019-03-05T00:02:19.870Z,99.99
2019-03-05T00:03:20.908Z,99.99
2019-03-05T00:04:21.377Z,99.99
2019-03-05T00:05:21.851Z,99.99
2019-03-05T00:06:22.666Z,99.99
2019-03-05T00:07:23.145Z,99.99
2019-03-05T00:08:23.800Z,99.99
2019-03-05T00:09:23.994Z,99.99
2019-03-05T00:10:24.799Z,99.99
2019-03-05T00:11:24.995Z,99.99
2019-03-05T00:12:25.476Z,99.99
2019-03-05T00:13:26.802Z,99.99
2019-03-05T00:14:27.568Z,99.99
2019-03-05T00:15:27.962Z,99.99
2019-03-05T00:16:29.550Z,99.99
2019-03-05T00:17:30.338Z,99.99
2019-03-05T00:18:31.287Z,99.99
2019-03-05T00:19:31.757Z,99.99
2019-03-05T00:20:32.513Z,99.99
2019-03-05T00:21:33.547Z,99.99
2019-03-05T00:22:33.578Z,99.99
2019-03-05T00:23:34.325Z,99.99
2019-03-05T00:24:35.075Z,99.99
2019-03-05T00:25:36.102Z,99.99
2019-03-05T00:26:36.861Z,99.99
2019-03-05T00:27:37.698Z,99.99
2019-03-05T00:28:38.185Z,99.99
2019-03-05T00:29:38.663Z,99.99
2019-03-05T00:30:38.906Z,99.99
2019-03-05T00:31:39.949Z,99.99
2019-03-05T00:32:40.700Z,99.99
2019-03-05T00:33:41.452Z,99.99
2019-03-05T00:34:41.653Z,99.99
2019-03-05T00:35:42.142Z,99.99
2019-03-05T00:36:42.891Z,99.99
2019-03-05T00:37:43.374Z,99.99
2019-03-05T00:38:44.309Z,99.99
2019-03-05T00:39:44.507Z,99.99
2019-03-05T00:40:44.699Z,99.99
2019-03-05T00:41:45.727Z,99.99
2019-03-05T00:42:46.039Z,99.99
2019-03-05T00:43:46.517Z,99.99
2019-03-05T00:44:47.326Z,99.99
2019-03-05T00:45:47.800Z,99.99
2019-03-05T00:46:48.277Z,99.99
2019-03-05T00:47:49.586Z,99.99
2019-03-05T00:48:50.344Z,99.99
2019-03-05T00:49:50.545Z,99.99
2019-03-05T00:50:51.306Z,99.99
2019-03-05T00:51:51.778Z,99.99
2019-03-05T00:52:52.817Z,99.99
2019-03-05T00:53:53.576Z,99.99
2019-03-05T00:54:53.773Z,99.99
2019-03-05T00:55:54.248Z,99.99
2019-03-05T00:56:55.000Z,99.99
2019-03-05T00:57:55.484Z,99.99
2019-03-05T00:58:56.402Z,99.99
2019-03-05T00:59:57.154Z,99.99
2019-03-05T01:00:57.915Z,99.99
2019-03-05T01:01:58.394Z,99.99
2019-03-05T01:02:59.146Z,99.99
2019-03-05T01:03:59.898Z,99.99
2019-03-05T01:04:59.944Z,99.99
2019-03-05T01:06:00.985Z,99.99
2019-03-05T01:07:02.299Z,99.99
2019-03-05T01:08:03.341Z,99.99
2019-03-05T01:09:04.111Z,99.99
2019-03-05T01:10:04.587Z,99.99
2019-03-05T01:11:05.061Z,99.99
2019-03-05T01:12:05.536Z,99.99
2019-03-05T01:13:06.291Z,99.99
2019-03-05T01:14:06.831Z,99.99
2019-03-05T01:15:07.077Z,99.99
2019-03-05T01:16:07.552Z,99.99
2019-03-05T01:17:08.057Z,99.99
2019-03-05T01:18:09.088Z,99.99
2019-03-05T01:19:13.187Z,99.99
2019-03-05T01:20:13.294Z,99.99
2019-03-05T01:21:13.505Z,99.99
2019-03-05T01:22:15.372Z,99.99
2019-03-05T01:23:15.164Z,99.99
2019-03-05T01:24:15.918Z,99.99
2019-03-05T01:25:16.944Z,99.99
2019-03-05T01:26:17.986Z,99.99
2019-03-05T01:27:18.191Z,99.99
2019-03-05T01:28:18.386Z,99.99
2019-03-05T01:29:19.048Z,99.99
2019-03-05T01:30:19.823Z,99.99
2019-03-05T01:31:20.297Z,99.99
2019-03-05T01:32:20.814Z,99.99
2019-03-05T01:33:21.567Z,99.99
2019-03-05T01:34:21.598Z,99.99
2019-03-05T01:35:22.074Z,99.99
2019-03-05T01:36:22.552Z,99.99
2019-03-05T01:37:23.034Z,99.99
2019-03-05T01:38:24.340Z,99.99
2019-03-05T01:39:25.035Z,99.99
2019-03-05T01:40:26.067Z,99.99
2019-03-05T01:41:27.094Z,99.99
2019-03-05T01:42:28.401Z,99.99
2019-03-05T01:43:28.882Z,99.99
2019-03-05T01:44:29.940Z,99.99
2019-03-05T01:45:30.706Z,99.99
2019-03-05T01:46:30.911Z,99.99
2019-03-05T01:47:31.726Z,99.99
2019-03-05T01:47:41.759Z,99.99
2019-03-05T01:48:42.672Z,99.99
2019-03-05T01:49:43.703Z,99.99
2019-03-05T01:50:44.460Z,99.99
2019-03-05T01:51:45.224Z,99.99
2019-03-05T01:52:45.711Z,99.99
2019-03-05T01:53:46.185Z,99.99
2019-03-05T01:54:46.669Z,99.99
2019-03-05T01:55:47.155Z,99.99
2019-03-05T01:56:47.904Z,99.99
2019-03-05T01:57:48.931Z,99.99
2019-03-05T01:58:50.133Z,99.99
2019-03-05T01:59:50.616Z,99.99
2019-03-05T02:00:50.816Z,99.99
2019-03-05T02:01:51.126Z,99.99
2019-03-05T02:02:51.603Z,99.99
2019-03-05T02:03:51.799Z,99.99
2019-03-05T02:04:52.827Z,99.99
2019-03-05T02:05:53.029Z,99.99
2019-03-05T02:06:53.781Z,99.99
2019-03-05T02:07:54.538Z,99.99
2019-03-05T02:08:54.472Z,99.99
2019-03-05T02:09:55.223Z,99.99
2019-03-05T02:10:55.980Z,99.99
2019-03-05T02:11:57.024Z,99.99
2019-03-05T02:12:57.119Z,99.99
2019-03-05T02:13:57.620Z,99.99
2019-03-05T02:14:58.097Z,99.99
2019-03-05T02:15:58.572Z,99.99
2019-03-05T02:16:59.323Z,99.99
2019-03-05T02:18:00.076Z,99.99
2019-03-05T02:19:00.368Z,99.99
2019-03-05T02:20:01.659Z,99.99
2019-03-05T02:21:01.686Z,99.99
2019-03-05T02:22:02.490Z,99.99
2019-03-05T02:23:03.310Z,99.99
2019-03-05T02:24:03.645Z,99.99
2019-03-05T02:25:04.393Z,99.99
2019-03-05T02:26:04.415Z,99.99
2019-03-05T02:27:05.164Z,99.99
2019-03-05T02:28:06.186Z,99.99
2019-03-05T02:29:07.090Z,99.99
2019-03-05T02:30:08.741Z,99.99
2019-03-05T02:31:09.330Z,99.99
2019-03-05T02:32:10.499Z,99.99
2019-03-05T02:33:10.557Z,99.99
2019-03-05T02:34:11.305Z,99.99
2019-03-05T02:35:12.176Z,99.99
2019-03-05T02:36:12.787Z,99.99
2019-03-05T02:37:13.922Z,99.99
2019-03-05T02:38:14.506Z,99.99
2019-03-05T02:39:15.247Z,99.99
2019-03-05T02:40:15.703Z,99.99
2019-03-05T02:41:17.017Z,99.99
2019-03-05T02:42:17.856Z,99.99
2019-03-05T02:43:18.449Z,99.99
2019-03-05T02:44:20.027Z,99.99
2019-03-05T02:45:20.338Z,99.99
2019-03-05T02:46:20.929Z,99.99
2019-03-05T02:47:22.258Z,99.99
2019-03-05T02:48:22.864Z,99.99
2019-03-05T02:49:23.163Z,99.99
2019-03-05T02:50:24.850Z,99.99
2019-03-05T02:51:25.432Z,99.99
2019-03-05T02:52:26.612Z,99.99
2019-03-05T02:53:26.997Z,99.99
2019-03-05T02:54:28.449Z,99.99
2019-03-05T02:55:29.592Z,99.99
2019-03-05T02:56:29.917Z,99.99
2019-03-05T02:57:30.706Z,99.99
2019-03-05T02:58:31.480Z,99.99
2019-03-05T02:59:32.802Z,99.99
2019-03-05T03:00:34.117Z,99.99
2019-03-05T03:01:34.588Z,99.99
2019-03-05T03:02:35.628Z,99.99
2019-03-05T03:03:36.498Z,99.99
2019-03-05T03:04:36.529Z,99.99
2019-03-05T03:05:38.133Z,99.99
2019-03-05T03:06:38.449Z,98.96
2019-03-05T03:07:40.412Z,97.45
2019-03-05T03:08:41.580Z,96.97
2019-03-05T03:09:42.654Z,95.65
2019-03-05T03:10:43.270Z,93.89
2019-03-05T03:11:43.860Z,91.9
2019-03-05T03:12:44.941Z,92.18
2019-03-05T03:13:45.304Z,90.86
2019-03-05T03:14:47.045Z,90.29
2019-03-05T03:15:47.369Z,91.14
2019-03-05T03:16:48.143Z,90
2019-03-05T03:17:49.795Z,91.24
2019-03-05T03:18:50.469Z,92.09
2019-03-05T03:19:51.103Z,92.94
2019-03-05T03:20:51.712Z,93.13
2019-03-05T03:21:52.749Z,93.04
2019-03-05T03:22:52.787Z,93.51
2019-03-05T03:23:54.266Z,93.61
2019-03-05T03:24:55.133Z,94.27
2019-03-05T03:25:56.283Z,93.7
2019-03-05T03:26:57.593Z,93.41
2019-03-05T03:27:57.751Z,93.89
2019-03-05T03:28:58.347Z,93.7
2019-03-05T03:29:59.140Z,93.89
2019-03-05T03:31:00.534Z,93.61
2019-03-05T03:32:01.313Z,93.89
2019-03-05T03:33:01.870Z,93.7
2019-03-05T03:34:02.732Z,93.51
2019-03-05T03:35:03.394Z,93.04
2019-03-05T03:36:04.366Z,93.99
2019-03-05T03:37:05.326Z,94.18
2019-03-05T03:38:05.942Z,94.79
2019-03-05T03:39:07.532Z,94.56
2019-03-05T03:40:08.165Z,94.46
2019-03-05T03:41:08.477Z,94.65
2019-03-05T03:42:09.351Z,95.5
2019-03-05T03:43:10.044Z,95.22
2019-03-05T03:44:11.199Z,94.74
2019-03-05T03:45:11.815Z,95.03
2019-03-05T03:46:12.116Z,95.27
2019-03-05T03:47:13.144Z,94.89
2019-03-05T03:48:14.283Z,94.84
2019-03-05T03:49:14.600Z,95.17
2019-03-05T03:50:15.930Z,94.13
2019-03-05T03:51:16.285Z,94.51
2019-03-05T03:52:17.074Z,94.03
2019-03-05T03:53:18.383Z,94.6
2019-03-05T03:54:19.363Z,95.07
2019-03-05T03:55:20.585Z,94.6
2019-03-05T03:56:20.953Z,94.89
2019-03-05T03:57:22.265Z,93.75
2019-03-05T03:58:22.845Z,94.51
2019-03-05T03:59:23.429Z,93.56
2019-03-05T04:00:24.013Z,93.08
2019-03-05T04:01:25.238Z,93.18
2019-03-05T04:02:26.120Z,93.84
2019-03-05T04:03:26.434Z,92.8
2019-03-05T04:04:28.024Z,90.52
2019-03-05T04:05:28.085Z,88.15
2019-03-05T04:06:28.818Z,85.21
2019-03-05T04:07:29.418Z,83.22
2019-03-05T04:08:30.017Z,82.17
2019-03-05T04:09:31.328Z,81.6
2019-03-05T04:10:32.403Z,80.94
2019-03-05T04:11:33.470Z,81.98
2019-03-05T04:12:34.651Z,82.84
2019-03-05T04:13:36.008Z,82.27
2019-03-05T04:14:35.904Z,82.27
2019-03-05T04:15:35.998Z,82.74
2019-03-05T04:16:36.599Z,85.21
2019-03-05T04:17:37.637Z,86.54
2019-03-05T04:18:38.947Z,85.78
2019-03-05T04:19:40.308Z,85.11
2019-03-05T04:20:40.355Z,85.3
2019-03-05T04:21:40.394Z,83.88
2019-03-05T04:22:40.982Z,84.26
2019-03-05T04:23:42.310Z,84.45
2019-03-05T04:24:42.634Z,85.21
2019-03-05T04:25:43.959Z,84.36
2019-03-05T04:26:44.991Z,82.65
2019-03-05T04:27:46.302Z,80.84
2019-03-05T04:28:47.337Z,81.23
2019-03-05T04:29:48.369Z,80.27
2019-03-05T04:30:49.155Z,81.04
2019-03-05T04:31:50.182Z,79.8
2019-03-05T04:32:51.221Z,78.47
2019-03-05T04:33:52.090Z,77.33
2019-03-05T04:34:52.128Z,76.95
2019-03-05T04:35:52.963Z,78
2019-03-05T04:36:53.149Z,79.99
2019-03-05T04:37:53.935Z,79.04
2019-03-05T04:38:54.409Z,79.99
2019-03-05T04:39:54.878Z,80.84
2019-03-05T04:40:55.786Z,80.94
2019-03-05T04:41:56.531Z,82.27
2019-03-05T04:42:57.004Z,81.88
2019-03-05T04:43:57.475Z,80.75
2019-03-05T04:44:57.949Z,81.51
2019-03-05T04:45:58.139Z,81.88
2019-03-05T04:46:58.894Z,82.55
2019-03-05T04:47:59.920Z,83.03
2019-03-05T04:49:00.944Z,83.4
2019-03-05T04:50:01.992Z,83.88
2019-03-05T04:51:02.650Z,84.17
2019-03-05T04:52:03.426Z,84.36
2019-03-05T04:53:04.174Z,84.45
2019-03-05T04:54:04.642Z,84.92
2019-03-05T04:55:05.384Z,83.59
2019-03-05T04:56:05.856Z,83.88
2019-03-05T04:57:06.044Z,85.21
2019-03-05T04:58:06.232Z,86.25
2019-03-05T04:59:06.424Z,85.68
2019-03-05T05:00:06.638Z,85.02
2019-03-05T05:01:07.823Z,85.4
2019-03-05T05:02:08.019Z,85.4
2019-03-05T05:03:08.276Z,86.35
2019-03-05T05:04:09.305Z,86.07
2019-03-05T05:05:10.131Z,87.77
2019-03-05T05:06:10.599Z,87.11
2019-03-05T05:07:11.075Z,86.91
2019-03-05T05:08:12.398Z,87.68
2019-03-05T05:09:12.867Z,87.77
2019-03-05T05:10:13.885Z,88.77
2019-03-05T05:11:14.090Z,88.06
2019-03-05T05:12:14.847Z,88.58
2019-03-05T05:13:15.320Z,89.15
2019-03-05T05:14:16.134Z,89.53
2019-03-05T05:15:17.158Z,89.72
2019-03-05T05:16:17.905Z,90
2019-03-05T05:17:18.653Z,91.05
2019-03-05T05:18:19.680Z,91.8
2019-03-05T05:19:20.152Z,92.28
2019-03-05T05:20:20.622Z,92.57
2019-03-05T05:21:21.256Z,93.13
2019-03-05T05:22:21.451Z,93.61
2019-03-05T05:23:22.477Z,93.89
2019-03-05T05:24:22.666Z,93.89
2019-03-05T05:25:23.413Z,93.7
2019-03-05T05:26:23.886Z,94.27
2019-03-05T05:27:24.360Z,94.65
2019-03-05T05:28:24.591Z,94.93
2019-03-05T05:29:24.786Z,94.84
2019-03-05T05:30:25.541Z,95.31
2019-03-05T05:31:25.747Z,95.88
2019-03-05T05:32:26.487Z,96.36
2019-03-05T05:33:26.967Z,96.45
2019-03-05T05:34:27.159Z,96.55
2019-03-05T05:35:28.211Z,97.12
2019-03-05T05:36:29.524Z,96.92
2019-03-05T05:37:30.549Z,97.59
2019-03-05T05:38:31.019Z,97.31
2019-03-05T05:39:31.491Z,97.5
2019-03-05T05:40:32.292Z,97.69
2019-03-05T05:41:33.227Z,98.25
2019-03-05T05:42:34.044Z,99.11
2019-03-05T05:43:34.519Z,99.3
2019-03-05T05:44:34.989Z,99.49
2019-03-05T05:45:35.455Z,98.92
2019-03-05T05:46:36.274Z,98.35
2019-03-05T05:47:36.740Z,98.16
2019-03-05T05:48:37.213Z,98.25
2019-03-05T05:49:38.237Z,98.54
2019-03-05T05:50:38.258Z,99.01
2019-03-05T05:51:38.488Z,98.92
2019-03-05T05:52:38.955Z,99.11
2019-03-05T05:53:40.059Z,98.54
2019-03-05T05:54:41.081Z,99.11
2019-03-05T05:55:41.829Z,99.01
2019-03-05T05:56:42.298Z,99.99
2019-03-05T05:57:42.487Z,99.99
2019-03-05T05:58:42.676Z,99.99
2019-03-05T05:59:43.497Z,99.99
2019-03-05T06:00:44.807Z,99.99
2019-03-05T06:01:45.589Z,99.99
2019-03-05T06:02:46.342Z,99.99
2019-03-05T06:03:47.368Z,99.99
2019-03-05T06:04:48.117Z,99.99
2019-03-05T06:05:48.863Z,99.99
2019-03-05T06:06:49.341Z,99.99
2019-03-05T06:07:49.810Z,99.99
2019-03-05T06:08:50.278Z,99.99
2019-03-05T06:09:51.363Z,99.99
2019-03-05T06:10:53.856Z,99.99
2019-03-05T06:11:54.345Z,99.99
2019-03-05T06:12:55.459Z,99.99
2019-03-05T06:13:55.929Z,99.99
2019-03-05T06:14:56.960Z,99.99
2019-03-05T06:15:58.263Z,99.99
2019-03-05T06:16:58.738Z,99.99
2019-03-05T06:17:59.762Z,99.99
2019-03-05T06:18:59.958Z,99.99
2019-03-05T06:20:00.783Z,99.99
2019-03-05T06:21:01.538Z,99.99
2019-03-05T06:22:02.744Z,99.99
2019-03-05T06:23:03.567Z,99.99
2019-03-05T06:24:04.417Z,99.34
2019-03-05T06:25:05.802Z,98.3
2019-03-05T06:26:09.592Z,97.64
2019-03-05T06:27:10.139Z,98.77
2019-03-05T06:28:11.162Z,97.64
2019-03-05T06:29:11.636Z,97.83
2019-03-05T06:30:12.385Z,97.83
2019-03-05T06:31:13.209Z,98.58
2019-03-05T06:32:14.115Z,97.92
2019-03-05T06:33:15.337Z,97.92
2019-03-05T06:34:15.844Z,97.83
2019-03-05T06:35:17.457Z,97.92
2019-03-05T06:36:17.485Z,98.68
2019-03-05T06:37:18.256Z,98.68
2019-03-05T06:38:19.006Z,98.77
2019-03-05T06:39:19.484Z,98.02
2019-03-05T06:40:19.964Z,98.11
2019-03-05T06:41:20.769Z,99.44
2019-03-05T06:42:21.116Z,97.92
2019-03-05T06:43:22.142Z,99.91
2019-03-05T06:44:23.570Z,99.99
2019-03-05T06:45:24.138Z,99.99
2019-03-05T06:46:25.063Z,99.99
2019-03-05T06:47:25.107Z,99.99
2019-03-05T06:48:26.413Z,99.99
2019-03-05T06:49:27.441Z,99.99
2019-03-05T06:50:28.208Z,99.99
2019-03-05T06:51:29.238Z,99.99
2019-03-05T06:52:29.722Z,99.99
2019-03-05T06:53:30.559Z,99.99
2019-03-05T06:54:31.309Z,99.99
2019-03-05T06:55:32.128Z,99.99
2019-03-05T06:56:32.877Z,99.99
2019-03-05T06:57:33.357Z,99.99
2019-03-05T06:58:33.833Z,99.99
2019-03-05T06:59:34.783Z,99.99
2019-03-05T07:00:35.876Z,99.99
2019-03-05T07:01:35.992Z,99.99
2019-03-05T07:02:36.448Z,99.99
2019-03-05T07:03:37.123Z,99.99
2019-03-05T07:04:37.604Z,99.99
2019-03-05T07:05:38.716Z,99.99
2019-03-05T07:06:39.096Z,99.99
2019-03-05T07:07:39.103Z,99.99
2019-03-05T07:08:40.285Z,99.99
2019-03-05T07:09:40.593Z,99.99
2019-03-05T07:10:41.729Z,99.99
2019-03-05T07:11:42.456Z,99.99
2019-03-05T07:12:43.498Z,99.99
2019-03-05T07:13:44.383Z,99.99
2019-03-05T07:14:45.488Z,99.99
2019-03-05T07:15:46.644Z,99.99
2019-03-05T07:16:47.222Z,99.99
2019-03-05T07:17:48.810Z,99.99
2019-03-05T07:18:49.588Z,99.99
2019-03-05T07:20:00.274Z,99.99
2019-03-05T07:21:01.811Z,99.99
2019-03-05T07:22:02.040Z,99.99
2019-03-05T07:23:02.793Z,99.99
2019-03-05T07:24:03.272Z,99.99
2019-03-05T07:25:04.582Z,99.99
2019-03-05T07:26:05.055Z,99.99
2019-03-05T07:27:05.336Z,99.99
2019-03-05T07:28:06.186Z,99.99
2019-03-05T07:29:06.500Z,99.99
2019-03-05T07:30:07.812Z,99.99
2019-03-05T07:31:08.695Z,99.99
2019-03-05T07:32:10.281Z,99.99
2019-03-05T07:33:10.389Z,99.99
2019-03-05T07:34:11.169Z,99.99
2019-03-05T07:35:11.921Z,99.99
2019-03-05T07:36:12.123Z,99.99
2019-03-05T07:37:13.520Z,99.99
2019-03-05T07:38:13.120Z,99.99
2019-03-05T07:39:13.872Z,99.99
2019-03-05T07:40:17.182Z,99.99
2019-03-05T07:41:15.920Z,99.93
2019-03-05T07:42:18.054Z,97.55
2019-03-05T07:43:18.087Z,96.26
2019-03-05T07:44:19.544Z,91.8
2019-03-05T07:45:19.743Z,94.08
2019-03-05T07:46:20.040Z,90.13
2019-03-05T07:47:20.854Z,85.56
2019-03-05T07:48:22.170Z,81.23
2019-03-05T07:49:22.483Z,74.88
2019-03-05T07:50:22.966Z,72.72
2019-03-05T07:51:24.170Z,68.18
2019-03-05T07:52:24.658Z,62.84
2019-03-05T07:53:25.211Z,58.58
2019-03-05T07:54:27.089Z,58.01
2019-03-05T07:55:27.876Z,56.7
2019-03-05T07:56:29.197Z,55.15
2019-03-05T07:57:32.526Z,54.89
2019-03-05T07:57:41.909Z,54.6
2019-03-05T07:57:52.295Z,54.79
2019-03-05T07:58:01.701Z,54.6
2019-03-05T07:59:00.775Z,53.45
2019-03-05T08:00:00.986Z,54.13
2019-03-05T08:01:01.619Z,54.79
2019-03-05T08:02:03.197Z,55.88
2019-03-05T08:03:04.236Z,55.95
2019-03-05T08:04:04.999Z,54.39
2019-03-05T08:05:06.043Z,54.97
2019-03-05T08:06:06.806Z,54.94
2019-03-05T08:07:07.288Z,55.7
2019-03-05T08:08:07.768Z,56.65
2019-03-05T08:09:08.287Z,57.58
2019-03-05T08:10:09.210Z,59.48
2019-03-05T08:11:09.973Z,59.67
2019-03-05T08:12:10.726Z,60.97
2019-03-05T08:13:11.202Z,62.75
2019-03-05T08:14:11.953Z,64.46
2019-03-05T08:15:15.754Z,67.69
2019-03-05T08:15:24.887Z,68.52
2019-03-05T08:15:35.377Z,69.56
2019-03-05T08:16:34.434Z,73.74
2019-03-05T08:17:35.162Z,77.98
2019-03-05T08:18:36.196Z,79.69
2019-03-05T08:19:36.227Z,75.79
2019-03-05T08:20:36.774Z,77.22
2019-03-05T08:21:36.973Z,79.6
2019-03-05T08:22:38.069Z,78.93
2019-03-05T08:23:38.666Z,79.6
2019-03-05T08:24:39.702Z,79.41
2019-03-05T08:25:40.018Z,81.68
2019-03-05T08:26:40.537Z,80.26
2019-03-05T08:27:41.294Z,81.68
2019-03-05T08:28:41.772Z,81.12
2019-03-05T08:29:42.081Z,79.97
2019-03-05T08:30:43.187Z,76.5
2019-03-05T08:31:43.952Z,74.03
2019-03-05T08:32:44.989Z,72.03
2019-03-05T08:33:45.830Z,72.6
2019-03-05T08:34:46.583Z,70.89
2019-03-05T08:35:47.058Z,68.93
2019-03-05T08:36:47.289Z,67.98
2019-03-05T08:37:48.083Z,66.11
2019-03-05T08:38:48.557Z,62.53
2019-03-05T08:39:48.879Z,60.34
2019-03-05T08:40:49.374Z,58.94
2019-03-05T08:41:50.688Z,59.13
2019-03-05T08:42:51.744Z,57.42
2019-03-05T08:43:54.979Z,56.46
2019-03-05T08:44:55.183Z,56.87
2019-03-05T08:45:55.382Z,57.51
2019-03-05T08:46:56.316Z,57.32
2019-03-05T08:47:56.542Z,56.49
2019-03-05T08:48:57.031Z,54.24
2019-03-05T08:49:58.067Z,52.45
2019-03-05T08:50:58.730Z,52.55
2019-03-05T08:51:58.769Z,51.37
2019-03-05T08:52:59.250Z,49.3
2019-03-05T08:53:59.568Z,47.32
2019-03-05T08:55:00.361Z,46.2
2019-03-05T08:56:01.422Z,45.94
2019-03-05T08:57:02.368Z,46.32
2019-03-05T08:58:03.473Z,46.15
2019-03-05T08:59:03.518Z,44.84
2019-03-05T09:00:04.291Z,44.19
2019-03-05T09:01:04.607Z,43.35
2019-03-05T09:02:04.730Z,42.2
2019-03-05T09:03:05.220Z,40.5
2019-03-05T09:04:05.980Z,39.18
2019-03-05T09:05:06.465Z,40.69
2019-03-05T09:06:07.228Z,41.27
2019-03-05T09:07:08.190Z,41.7
2019-03-05T09:08:08.237Z,41.01
2019-03-05T09:09:09.280Z,41.58
2019-03-05T09:10:09.768Z,42.16
2019-03-05T09:11:10.375Z,42.52
2019-03-05T09:12:11.144Z,43.07
2019-03-05T09:13:12.744Z,43.36
2019-03-05T09:14:12.973Z,43.17
2019-03-05T09:15:13.762Z,43.53
2019-03-05T09:16:14.531Z,45.53
2019-03-05T09:17:15.492Z,46.3
2019-03-05T09:18:15.701Z,46.56
2019-03-05T09:19:19.193Z,46.39
2019-03-05T09:20:17.376Z,45.25
2019-03-05T09:21:18.422Z,44.87
2019-03-05T09:22:19.029Z,44.58
2019-03-05T09:23:20.072Z,43.82
2019-03-05T09:24:20.561Z,43.36
2019-03-05T09:25:24.386Z,43.72
2019-03-05T09:25:32.679Z,43.91
2019-03-05T09:26:35.267Z,45.25
2019-03-05T09:26:54.977Z,45.43
2019-03-05T09:27:57.704Z,46.2
2019-03-05T09:28:02.967Z,46.3
2019-03-05T09:29:03.329Z,46.48
2019-03-05T09:30:03.811Z,48.78
2019-03-05T09:31:05.723Z,48.97
2019-03-05T09:31:16.808Z,48.85
2019-03-05T09:31:27.241Z,49.13
2019-03-05T09:31:37.684Z,49.13
2019-03-05T09:31:47.787Z,49.16
2019-03-05T09:31:58.115Z,48.78
2019-03-05T09:32:08.667Z,48.78
2019-03-05T09:32:17.707Z,48.68
2019-03-05T09:32:27.053Z,48.78
2019-03-05T09:33:29.847Z,47.92
2019-03-05T09:33:36.698Z,47.42
2019-03-05T09:34:37.378Z,48.57
2019-03-05T09:35:37.860Z,48.57
2019-03-05T09:36:49.987Z,48.94
2019-03-05T09:36:52.379Z,49.52
2019-03-05T09:37:53.053Z,50.38
2019-03-05T09:38:02.220Z,50.38
2019-03-05T09:39:04.920Z,49.99
2019-03-05T09:39:12.711Z,49.9
2019-03-05T09:40:10.977Z,50.18
2019-03-05T09:41:14.824Z,49.9
2019-03-05T09:41:23.874Z,50.18
2019-03-05T09:41:34.735Z,49.9
2019-03-05T09:41:44.851Z,49.78
2019-03-05T09:41:53.079Z,49.68
2019-03-05T09:42:52.993Z,50.07
2019-03-05T09:43:53.753Z,50.16
2019-03-05T09:44:54.790Z,50.45
2019-03-05T09:45:54.998Z,50.73
2019-03-05T09:46:56.888Z,49.97
2019-03-05T09:47:57.644Z,49.97
2019-03-05T09:48:58.757Z,47.97
2019-03-05T09:49:59.514Z,46.99
2019-03-05T09:51:00.146Z,46.32
2019-03-05T09:52:02.027Z,46.42
2019-03-05T09:53:05.679Z,46.15
2019-03-05T09:53:14.779Z,46.42
2019-03-05T09:53:25.400Z,46.23
2019-03-05T09:53:34.972Z,46.42
2019-03-05T09:54:33.738Z,46.32
2019-03-05T09:55:34.780Z,48.42
2019-03-05T09:56:35.547Z,50.04
2019-03-05T09:57:36.868Z,50.52
2019-03-05T09:58:36.630Z,49.63
2019-03-05T09:59:37.674Z,47.34
2019-03-05T10:00:37.871Z,46.3
2019-03-05T10:01:38.349Z,45.63
2019-03-05T10:02:43.226Z,44.39
2019-03-05T10:02:51.343Z,43.91
2019-03-05T10:03:01.688Z,43.73
2019-03-05T10:03:09.974Z,43.73
2019-03-05T10:04:11.588Z,43.73
2019-03-05T10:04:22.865Z,44.2
2019-03-05T10:04:33.365Z,44.11
2019-03-05T10:04:42.490Z,44.49
2019-03-05T10:04:53.716Z,44.3
2019-03-05T10:05:03.886Z,44.39
2019-03-05T10:05:14.135Z,44.6
2019-03-05T10:05:22.526Z,44.42
2019-03-05T10:06:23.311Z,44.32
2019-03-05T10:07:24.351Z,43.08
2019-03-05T10:08:35.023Z,41.94
2019-03-05T10:09:35.997Z,42.05
2019-03-05T10:10:36.489Z,42.05
2019-03-05T10:11:37.047Z,41.77
2019-03-05T10:12:38.082Z,41.2
2019-03-05T10:13:42.181Z,41.39
2019-03-05T10:13:51.454Z,41.58
2019-03-05T10:14:00.886Z,41.58
2019-03-05T10:15:00.390Z,41.77
2019-03-05T10:16:01.454Z,42.24
2019-03-05T10:17:01.113Z,43.1
2019-03-05T10:18:13.897Z,43.1
2019-03-05T10:19:12.840Z,43.96
2019-03-05T10:20:13.597Z,43.1
2019-03-05T10:21:14.660Z,42.55
2019-03-05T10:22:16.446Z,42.74
2019-03-05T10:23:16.201Z,43.29
2019-03-05T10:24:16.966Z,43.68
2019-03-05T10:25:18.766Z,44.37
2019-03-05T10:26:20.171Z,44.82
2019-03-05T10:27:20.668Z,43.77
2019-03-05T10:28:22.026Z,44.53
2019-03-05T10:29:22.408Z,44.01
2019-03-05T10:30:25.971Z,43.43
2019-03-05T10:31:27.303Z,42.29
2019-03-05T10:32:27.790Z,41.52
2019-03-05T10:33:28.273Z,42
2019-03-05T10:34:28.752Z,41.64
2019-03-05T10:35:29.233Z,42.02
2019-03-05T10:36:29.986Z,42.1
2019-03-05T10:37:30.471Z,42.46
2019-03-05T10:38:30.955Z,41.5
2019-03-05T10:39:32.718Z,42.46
2019-03-05T10:40:33.237Z,43.13
2019-03-05T10:41:33.999Z,43.29
2019-03-05T10:42:34.215Z,43.27
2019-03-05T10:43:35.307Z,43.1
2019-03-05T10:44:39.099Z,43.41
2019-03-05T10:44:48.172Z,43.62
2019-03-05T10:44:58.487Z,43.43
2019-03-05T10:45:08.031Z,43.55
2019-03-05T10:45:19.346Z,43.07
2019-03-05T10:45:28.580Z,42.69
2019-03-05T10:46:27.739Z,40.11
2019-03-05T10:47:28.570Z,38.32
2019-03-05T10:48:31.189Z,37.95
2019-03-05T10:49:31.975Z,38.71
2019-03-05T10:50:32.465Z,39.86
2019-03-05T10:51:32.671Z,40.13
2019-03-05T10:52:34.083Z,41.18
2019-03-05T10:53:34.572Z,42.21
2019-03-05T10:54:35.057Z,42.27
2019-03-05T10:55:36.170Z,43.68
2019-03-05T10:56:37.206Z,43.65
2019-03-05T10:57:38.302Z,43.29
2019-03-05T10:58:39.230Z,40.83
2019-03-05T10:59:42.783Z,40.81
2019-03-05T10:59:52.410Z,40.64
2019-03-05T11:00:03.263Z,40.64
2019-03-05T11:00:13.384Z,40.36
2019-03-05T11:00:23.060Z,40.17
2019-03-05T11:00:32.963Z,40.19
2019-03-05T11:01:34.069Z,40.19
2019-03-05T11:01:42.560Z,40.09
2019-03-05T11:02:43.362Z,40.28
2019-03-05T11:03:44.742Z,40.3
2019-03-05T11:04:47.792Z,41.06
2019-03-05T11:04:56.061Z,41.28
2019-03-05T11:05:57.820Z,40.03
2019-03-05T11:06:57.003Z,37.85
2019-03-05T11:07:57.740Z,36.99
2019-03-05T11:08:58.891Z,38.03
2019-03-05T11:09:59.974Z,38.79
2019-03-05T11:11:00.764Z,38.51
2019-03-05T11:11:14.945Z,38.68
2019-03-05T11:11:22.272Z,38.78
2019-03-05T11:12:21.420Z,38.78
2019-03-05T11:13:22.316Z,39.32
2019-03-05T11:14:22.285Z,40.17
2019-03-05T11:15:23.623Z,41.12
2019-03-05T11:16:31.834Z,42.15
2019-03-05T11:16:34.398Z,42.15
2019-03-05T11:17:35.566Z,42.15
2019-03-05T11:18:35.921Z,41.79
2019-03-05T11:19:38.102Z,42.27
2019-03-05T11:20:36.786Z,41.88
2019-03-05T11:21:38.105Z,41.88
2019-03-05T11:22:38.487Z,41.98
2019-03-05T11:23:39.530Z,41.96
2019-03-05T11:24:40.584Z,42.53
2019-03-05T11:25:41.972Z,42.27
2019-03-05T11:26:44.107Z,42.36
2019-03-05T11:27:45.622Z,42.15
2019-03-05T11:27:53.714Z,42.27
2019-03-05T11:28:58.409Z,41.98
2019-03-05T11:29:04.254Z,41.98
2019-03-05T11:30:08.147Z,41.22
2019-03-05T11:31:07.167Z,41.12
2019-03-05T11:32:08.281Z,40.74
2019-03-05T11:33:09.051Z,41.31
2019-03-05T11:34:09.340Z,42.15
2019-03-05T11:35:10.593Z,42.17
2019-03-05T11:36:11.080Z,42.34
2019-03-05T11:37:11.842Z,42.27
2019-03-05T11:38:15.441Z,41.96
2019-03-05T11:39:14.490Z,41.31
2019-03-05T11:40:21.998Z,40.86
2019-03-05T11:40:25.379Z,40.86
2019-03-05T11:41:25.871Z,39.71
2019-03-05T11:42:26.634Z,39.69
2019-03-05T11:43:26.843Z,39.23
2019-03-05T11:44:28.159Z,39.12
2019-03-05T11:45:31.596Z,39.12
2019-03-05T11:46:34.182Z,38.35
2019-03-05T11:46:42.095Z,38.35
2019-03-05T11:47:42.037Z,38.64
2019-03-05T11:48:43.355Z,38.35
2019-03-05T11:49:43.840Z,39.48
2019-03-05T11:50:44.602Z,39.29
2019-03-05T11:51:44.661Z,39.29
2019-03-05T11:52:48.978Z,39.67
2019-03-05T11:52:58.021Z,39.76
2019-03-05T11:53:06.468Z,39.88
2019-03-05T11:54:06.995Z,41.69
2019-03-05T11:55:08.039Z,43.32
2019-03-05T11:56:08.521Z,44.27
2019-03-05T11:57:09.007Z,44.84
2019-03-05T11:58:09.608Z,44.65
2019-03-05T11:59:10.141Z,44.27
2019-03-05T12:00:10.632Z,44.08
2019-03-05T12:01:11.415Z,45.03
2019-03-05T12:02:22.628Z,44.84
2019-03-05T12:03:22.576Z,43.79
2019-03-05T12:04:24.184Z,44.27
2019-03-05T12:05:24.742Z,44.82
2019-03-05T12:06:24.947Z,44.73
2019-03-05T12:07:26.043Z,44.92
2019-03-05T12:08:26.526Z,45.29
2019-03-05T12:09:27.865Z,45.78
2019-03-05T12:10:28.347Z,45.49
2019-03-05T12:11:28.834Z,44.25
2019-03-05T12:12:29.912Z,43.29
2019-03-05T12:13:30.726Z,43.22